sensor_id;sensor_type;location;lat;lon;timestamp;P1;durP1;ratioP1;P2;durP2;ratioP2
21777;SDS011;11050;52.222;20.916;2023-06-22T00:00:49;41.67;;;37.35;;
21777;SDS011;11050;52.222;20.916;2023-06-22T00:03:17;42.58;;;38.08;;
21777;SDS011;11050;52.222;20.916;2023-06-22T00:05:44;43.75;;;39.05;;
21777;SDS011;11050;52.222;20.916;2023-06-22T00:08:11;44.63;;;39.33;;
21777;SDS011;11050;52.222;20.916;2023-06-22T00:10:37;44.80;;;39.60;;
21777;SDS011;11050;52.222;20.916;2023-06-22T00:13:03;48.75;;;40.60;;
21777;SDS011;11050;52.222;20.916;2023-06-22T00:15:31;48.58;;;40.10;;
21777;SDS011;11050;52.222;20.916;2023-06-22T00:17:57;44.00;;;39.17;;
21777;SDS011;11050;52.222;20.916;2023-06-22T00:20:24;48.90;;;40.45;;
21777;SDS011;11050;52.222;20.916;2023-06-22T00:22:54;43.90;;;39.00;;
21777;SDS011;11050;52.222;20.916;2023-06-22T00:25:21;44.42;;;37.38;;
21777;SDS011;11050;52.222;20.916;2023-06-22T00:27:47;44.45;;;37.78;;
21777;SDS011;11050;52.222;20.916;2023-06-22T00:30:13;41.28;;;36.47;;
21777;SDS011;11050;52.222;20.916;2023-06-22T00:32:42;43.60;;;38.88;;
21777;SDS011;11050;52.222;20.916;2023-06-22T00:35:09;48.08;;;39.55;;
21777;SDS011;11050;52.222;20.916;2023-06-22T00:37:35;42.15;;;37.67;;
21777;SDS011;11050;52.222;20.916;2023-06-22T00:40:02;42.15;;;37.60;;
21777;SDS011;11050;52.222;20.916;2023-06-22T00:42:30;42.67;;;38.25;;
21777;SDS011;11050;52.222;20.916;2023-06-22T00:44:56;43.00;;;38.13;;
21777;SDS011;11050;52.222;20.916;2023-06-22T00:47:22;42.08;;;37.58;;
21777;SDS011;11050;52.222;20.916;2023-06-22T00:49:49;47.83;;;37.33;;
21777;SDS011;11050;52.222;20.916;2023-06-22T00:52:19;42.90;;;38.20;;
21777;SDS011;11050;52.222;20.916;2023-06-22T00:54:52;41.85;;;37.30;;
21777;SDS011;11050;52.222;20.916;2023-06-22T00:57:18;42.03;;;37.60;;
21777;SDS011;11050;52.222;20.916;2023-06-22T00:59:47;42.53;;;37.92;;
21777;SDS011;11050;52.222;20.916;2023-06-22T01:02:14;42.70;;;37.83;;
21777;SDS011;11050;52.222;20.916;2023-06-22T01:04:40;41.88;;;37.35;;
21777;SDS011;11050;52.222;20.916;2023-06-22T01:07:42;42.13;;;37.70;;
21777;SDS011;11050;52.222;20.916;2023-06-22T01:10:13;42.00;;;37.33;;
21777;SDS011;11050;52.222;20.916;2023-06-22T01:16:31;40.90;;;36.58;;
21777;SDS011;11050;52.222;20.916;2023-06-22T01:19:07;40.38;;;36.15;;
21777;SDS011;11050;52.222;20.916;2023-06-22T01:22:00;42.97;;;36.38;;
21777;SDS011;11050;52.222;20.916;2023-06-22T01:27:28;43.85;;;38.15;;
21777;SDS011;11050;52.222;20.916;2023-06-22T01:30:06;42.35;;;37.15;;
21777;SDS011;11050;52.222;20.916;2023-06-22T01:32:35;48.63;;;38.97;;
21777;SDS011;11050;52.222;20.916;2023-06-22T01:35:04;41.85;;;37.17;;
21777;SDS011;11050;52.222;20.916;2023-06-22T01:37:33;46.65;;;40.42;;
21777;SDS011;11050;52.222;20.916;2023-06-22T01:40:03;45.63;;;39.25;;
21777;SDS011;11050;52.222;20.916;2023-06-22T01:42:33;47.17;;;39.95;;
21777;SDS011;11050;52.222;20.916;2023-06-22T01:45:00;45.67;;;40.67;;
21777;SDS011;11050;52.222;20.916;2023-06-22T01:47:28;45.38;;;39.85;;
21777;SDS011;11050;52.222;20.916;2023-06-22T01:49:54;46.63;;;40.28;;
21777;SDS011;11050;52.222;20.916;2023-06-22T01:52:20;45.85;;;40.78;;
21777;SDS011;11050;52.222;20.916;2023-06-22T01:54:46;46.67;;;40.72;;
21777;SDS011;11050;52.222;20.916;2023-06-22T01:57:15;45.25;;;40.45;;
21777;SDS011;11050;52.222;20.916;2023-06-22T02:02:41;47.63;;;42.53;;
21777;SDS011;11050;52.222;20.916;2023-06-22T02:05:14;47.17;;;41.83;;
21777;SDS011;11050;52.222;20.916;2023-06-22T02:07:47;49.40;;;43.70;;
21777;SDS011;11050;52.222;20.916;2023-06-22T02:10:21;53.72;;;45.63;;
21777;SDS011;11050;52.222;20.916;2023-06-22T02:12:49;54.45;;;45.60;;
21777;SDS011;11050;52.222;20.916;2023-06-22T02:15:17;50.08;;;44.47;;
21777;SDS011;11050;52.222;20.916;2023-06-22T02:17:44;54.25;;;46.67;;
21777;SDS011;11050;52.222;20.916;2023-06-22T02:20:16;54.45;;;48.50;;
21777;SDS011;11050;52.222;20.916;2023-06-22T02:22:41;59.08;;;47.25;;
21777;SDS011;11050;52.222;20.916;2023-06-22T02:25:07;58.22;;;50.20;;
21777;SDS011;11050;52.222;20.916;2023-06-22T02:27:33;63.75;;;50.10;;
21777;SDS011;11050;52.222;20.916;2023-06-22T02:29:59;60.17;;;50.58;;
21777;SDS011;11050;52.222;20.916;2023-06-22T02:32:25;67.05;;;52.30;;
21777;SDS011;11050;52.222;20.916;2023-06-22T02:34:52;69.60;;;55.97;;
21777;SDS011;11050;52.222;20.916;2023-06-22T02:37:18;77.70;;;55.70;;
21777;SDS011;11050;52.222;20.916;2023-06-22T02:39:43;82.97;;;59.47;;
21777;SDS011;11050;52.222;20.916;2023-06-22T02:42:09;90.20;;;62.22;;
21777;SDS011;11050;52.222;20.916;2023-06-22T02:44:35;102.50;;;63.53;;
21777;SDS011;11050;52.222;20.916;2023-06-22T02:47:02;95.72;;;62.08;;
21777;SDS011;11050;52.222;20.916;2023-06-22T02:49:28;99.38;;;60.90;;
21777;SDS011;11050;52.222;20.916;2023-06-22T02:51:54;90.90;;;60.00;;
21777;SDS011;11050;52.222;20.916;2023-06-22T02:54:20;93.72;;;61.45;;
21777;SDS011;11050;52.222;20.916;2023-06-22T02:56:46;92.05;;;61.75;;
21777;SDS011;11050;52.222;20.916;2023-06-22T02:59:13;94.95;;;62.30;;
21777;SDS011;11050;52.222;20.916;2023-06-22T03:01:38;84.43;;;59.15;;
21777;SDS011;11050;52.222;20.916;2023-06-22T03:04:08;86.05;;;59.33;;
21777;SDS011;11050;52.222;20.916;2023-06-22T03:06:35;86.70;;;59.30;;
21777;SDS011;11050;52.222;20.916;2023-06-22T03:09:04;88.05;;;60.78;;
21777;SDS011;11050;52.222;20.916;2023-06-22T03:11:30;85.50;;;59.75;;
21777;SDS011;11050;52.222;20.916;2023-06-22T03:13:57;77.63;;;56.65;;
21777;SDS011;11050;52.222;20.916;2023-06-22T03:16:24;82.50;;;58.40;;
21777;SDS011;11050;52.222;20.916;2023-06-22T03:18:50;77.72;;;59.80;;
21777;SDS011;11050;52.222;20.916;2023-06-22T03:21:16;76.45;;;56.13;;
21777;SDS011;11050;52.222;20.916;2023-06-22T03:23:42;82.70;;;61.38;;
21777;SDS011;11050;52.222;20.916;2023-06-22T03:26:08;81.95;;;57.38;;
21777;SDS011;11050;52.222;20.916;2023-06-22T03:28:35;74.32;;;57.35;;
21777;SDS011;11050;52.222;20.916;2023-06-22T03:31:00;73.55;;;56.53;;
21777;SDS011;11050;52.222;20.916;2023-06-22T03:33:26;77.38;;;57.58;;
21777;SDS011;11050;52.222;20.916;2023-06-22T03:35:52;70.93;;;54.58;;
21777;SDS011;11050;52.222;20.916;2023-06-22T03:38:18;76.90;;;57.58;;
21777;SDS011;11050;52.222;20.916;2023-06-22T03:40:44;72.80;;;55.85;;
21777;SDS011;11050;52.222;20.916;2023-06-22T03:43:10;67.60;;;53.60;;
21777;SDS011;11050;52.222;20.916;2023-06-22T03:45:36;65.85;;;51.40;;
21777;SDS011;11050;52.222;20.916;2023-06-22T03:48:02;65.38;;;51.65;;
21777;SDS011;11050;52.222;20.916;2023-06-22T03:50:28;69.65;;;52.97;;
21777;SDS011;11050;52.222;20.916;2023-06-22T03:52:54;62.75;;;49.85;;
21777;SDS011;11050;52.222;20.916;2023-06-22T03:55:20;65.05;;;50.38;;
21777;SDS011;11050;52.222;20.916;2023-06-22T03:57:46;65.43;;;50.75;;
21777;SDS011;11050;52.222;20.916;2023-06-22T04:00:12;63.70;;;50.17;;
21777;SDS011;11050;52.222;20.916;2023-06-22T04:02:40;65.57;;;48.72;;
21777;SDS011;11050;52.222;20.916;2023-06-22T04:05:08;59.22;;;47.63;;
21777;SDS011;11050;52.222;20.916;2023-06-22T04:07:35;62.80;;;46.92;;
21777;SDS011;11050;52.222;20.916;2023-06-22T04:10:02;56.53;;;46.45;;
21777;SDS011;11050;52.222;20.916;2023-06-22T04:12:32;60.15;;;47.22;;
21777;SDS011;11050;52.222;20.916;2023-06-22T04:14:59;55.83;;;47.38;;
21777;SDS011;11050;52.222;20.916;2023-06-22T04:17:24;58.95;;;45.92;;
21777;SDS011;11050;52.222;20.916;2023-06-22T04:19:50;59.95;;;48.08;;
21777;SDS011;11050;52.222;20.916;2023-06-22T04:22:17;58.28;;;46.67;;
21777;SDS011;11050;52.222;20.916;2023-06-22T04:24:43;53.97;;;44.75;;
21777;SDS011;11050;52.222;20.916;2023-06-22T04:27:09;56.00;;;45.97;;
21777;SDS011;11050;52.222;20.916;2023-06-22T04:29:35;49.25;;;42.53;;
21777;SDS011;11050;52.222;20.916;2023-06-22T04:32:03;52.85;;;44.88;;
21777;SDS011;11050;52.222;20.916;2023-06-22T04:34:31;55.75;;;46.38;;
21777;SDS011;11050;52.222;20.916;2023-06-22T04:36:57;50.72;;;42.85;;
21777;SDS011;11050;52.222;20.916;2023-06-22T04:39:23;52.25;;;43.38;;
21777;SDS011;11050;52.222;20.916;2023-06-22T04:41:49;51.33;;;42.17;;
21777;SDS011;11050;52.222;20.916;2023-06-22T04:44:17;47.13;;;40.58;;
21777;SDS011;11050;52.222;20.916;2023-06-22T04:46:49;51.47;;;42.00;;
21777;SDS011;11050;52.222;20.916;2023-06-22T04:49:19;43.95;;;39.22;;
21777;SDS011;11050;52.222;20.916;2023-06-22T04:51:47;46.00;;;38.50;;
21777;SDS011;11050;52.222;20.916;2023-06-22T04:54:14;44.90;;;39.55;;
21777;SDS011;11050;52.222;20.916;2023-06-22T04:56:40;47.55;;;40.63;;
21777;SDS011;11050;52.222;20.916;2023-06-22T04:59:06;45.88;;;37.63;;
21777;SDS011;11050;52.222;20.916;2023-06-22T05:01:32;44.85;;;37.63;;
21777;SDS011;11050;52.222;20.916;2023-06-22T05:04:00;41.67;;;35.95;;
21777;SDS011;11050;52.222;20.916;2023-06-22T05:06:27;45.45;;;37.20;;
21777;SDS011;11050;52.222;20.916;2023-06-22T05:08:54;40.42;;;33.97;;
21777;SDS011;11050;52.222;20.916;2023-06-22T05:11:27;40.28;;;35.25;;
21777;SDS011;11050;52.222;20.916;2023-06-22T05:13:54;44.58;;;34.35;;
21777;SDS011;11050;52.222;20.916;2023-06-22T05:16:20;37.50;;;33.35;;
21777;SDS011;11050;52.222;20.916;2023-06-22T05:18:51;44.05;;;35.15;;
21777;SDS011;11050;52.222;20.916;2023-06-22T05:21:24;44.22;;;35.15;;
21777;SDS011;11050;52.222;20.916;2023-06-22T05:23:52;40.08;;;33.70;;
21777;SDS011;11050;52.222;20.916;2023-06-22T05:26:19;37.20;;;32.13;;
21777;SDS011;11050;52.222;20.916;2023-06-22T05:28:46;47.78;;;34.45;;
21777;SDS011;11050;52.222;20.916;2023-06-22T05:31:13;40.08;;;32.08;;
21777;SDS011;11050;52.222;20.916;2023-06-22T05:33:41;37.15;;;30.90;;
21777;SDS011;11050;52.222;20.916;2023-06-22T05:36:08;36.25;;;31.13;;
21777;SDS011;11050;52.222;20.916;2023-06-22T05:38:35;33.05;;;29.45;;
21777;SDS011;11050;52.222;20.916;2023-06-22T05:41:01;32.92;;;29.35;;
21777;SDS011;11050;52.222;20.916;2023-06-22T05:43:28;35.65;;;29.83;;
21777;SDS011;11050;52.222;20.916;2023-06-22T05:45:54;35.63;;;28.85;;
21777;SDS011;11050;52.222;20.916;2023-06-22T05:48:19;31.75;;;28.13;;
21777;SDS011;11050;52.222;20.916;2023-06-22T05:50:45;32.88;;;28.23;;
21777;SDS011;11050;52.222;20.916;2023-06-22T05:53:11;34.70;;;29.42;;
21777;SDS011;11050;52.222;20.916;2023-06-22T05:55:37;35.85;;;30.15;;
21777;SDS011;11050;52.222;20.916;2023-06-22T05:58:03;30.35;;;26.75;;
21777;SDS011;11050;52.222;20.916;2023-06-22T06:00:29;32.47;;;27.27;;
21777;SDS011;11050;52.222;20.916;2023-06-22T06:02:55;34.35;;;27.05;;
21777;SDS011;11050;52.222;20.916;2023-06-22T06:05:21;30.30;;;26.88;;
21777;SDS011;11050;52.222;20.916;2023-06-22T06:07:49;30.05;;;26.05;;
21777;SDS011;11050;52.222;20.916;2023-06-22T06:10:14;30.05;;;25.42;;
21777;SDS011;11050;52.222;20.916;2023-06-22T06:12:40;29.08;;;25.88;;
21777;SDS011;11050;52.222;20.916;2023-06-22T06:15:06;30.35;;;27.15;;
21777;SDS011;11050;52.222;20.916;2023-06-22T06:17:32;27.35;;;24.45;;
21777;SDS011;11050;52.222;20.916;2023-06-22T06:19:58;26.50;;;23.75;;
21777;SDS011;11050;52.222;20.916;2023-06-22T06:22:25;27.17;;;24.27;;
21777;SDS011;11050;52.222;20.916;2023-06-22T06:24:51;26.70;;;23.85;;
21777;SDS011;11050;52.222;20.916;2023-06-22T06:27:16;30.17;;;24.45;;
21777;SDS011;11050;52.222;20.916;2023-06-22T06:29:45;25.65;;;22.58;;
21777;SDS011;11050;52.222;20.916;2023-06-22T06:32:13;25.00;;;22.30;;
21777;SDS011;11050;52.222;20.916;2023-06-22T06:34:39;27.17;;;21.98;;
21777;SDS011;11050;52.222;20.916;2023-06-22T06:37:05;24.73;;;22.13;;
21777;SDS011;11050;52.222;20.916;2023-06-22T06:39:31;26.20;;;21.77;;
21777;SDS011;11050;52.222;20.916;2023-06-22T06:41:57;24.90;;;22.25;;
21777;SDS011;11050;52.222;20.916;2023-06-22T06:44:22;27.23;;;22.60;;
21777;SDS011;11050;52.222;20.916;2023-06-22T06:46:48;27.98;;;22.30;;
21777;SDS011;11050;52.222;20.916;2023-06-22T06:49:14;22.55;;;20.02;;
21777;SDS011;11050;52.222;20.916;2023-06-22T06:51:40;22.50;;;20.25;;
21777;SDS011;11050;52.222;20.916;2023-06-22T06:54:05;22.60;;;19.48;;
21777;SDS011;11050;52.222;20.916;2023-06-22T06:56:31;21.92;;;18.95;;
21777;SDS011;11050;52.222;20.916;2023-06-22T06:58:58;20.98;;;18.60;;
21777;SDS011;11050;52.222;20.916;2023-06-22T07:01:24;19.40;;;17.08;;
21777;SDS011;11050;52.222;20.916;2023-06-22T07:03:50;18.25;;;15.98;;
21777;SDS011;11050;52.222;20.916;2023-06-22T07:06:15;18.00;;;15.93;;
21777;SDS011;11050;52.222;20.916;2023-06-22T07:08:41;19.42;;;17.15;;
21777;SDS011;11050;52.222;20.916;2023-06-22T07:11:07;17.38;;;15.63;;
21777;SDS011;11050;52.222;20.916;2023-06-22T07:13:33;18.88;;;15.57;;
21777;SDS011;11050;52.222;20.916;2023-06-22T07:15:59;17.15;;;15.07;;
21777;SDS011;11050;52.222;20.916;2023-06-22T07:18:25;15.82;;;13.88;;
21777;SDS011;11050;52.222;20.916;2023-06-22T07:20:51;18.23;;;14.32;;
21777;SDS011;11050;52.222;20.916;2023-06-22T07:23:17;15.93;;;14.10;;
21777;SDS011;11050;52.222;20.916;2023-06-22T07:25:43;15.13;;;13.63;;
21777;SDS011;11050;52.222;20.916;2023-06-22T07:28:09;17.08;;;13.98;;
21777;SDS011;11050;52.222;20.916;2023-06-22T07:30:35;15.50;;;13.93;;
21777;SDS011;11050;52.222;20.916;2023-06-22T07:33:01;13.75;;;12.18;;
21777;SDS011;11050;52.222;20.916;2023-06-22T07:35:33;15.57;;;12.57;;
21777;SDS011;11050;52.222;20.916;2023-06-22T07:37:59;14.07;;;11.68;;
21777;SDS011;11050;52.222;20.916;2023-06-22T07:40:25;14.32;;;11.45;;
21777;SDS011;11050;52.222;20.916;2023-06-22T07:42:51;16.08;;;11.10;;
21777;SDS011;11050;52.222;20.916;2023-06-22T07:45:18;18.13;;;11.70;;
21777;SDS011;11050;52.222;20.916;2023-06-22T07:47:44;11.25;;;10.15;;
21777;SDS011;11050;52.222;20.916;2023-06-22T07:50:10;13.05;;;10.77;;
21777;SDS011;11050;52.222;20.916;2023-06-22T07:52:35;11.57;;;9.82;;
21777;SDS011;11050;52.222;20.916;2023-06-22T07:55:01;11.73;;;10.30;;
21777;SDS011;11050;52.222;20.916;2023-06-22T07:57:28;10.80;;;9.70;;
21777;SDS011;11050;52.222;20.916;2023-06-22T08:00:01;12.18;;;9.40;;
21777;SDS011;11050;52.222;20.916;2023-06-22T08:02:37;10.90;;;8.50;;
21777;SDS011;11050;52.222;20.916;2023-06-22T08:05:02;9.43;;;8.35;;
21777;SDS011;11050;52.222;20.916;2023-06-22T08:07:29;10.27;;;8.25;;
21777;SDS011;11050;52.222;20.916;2023-06-22T08:09:58;8.77;;;7.88;;
21777;SDS011;11050;52.222;20.916;2023-06-22T08:12:24;9.85;;;7.97;;
21777;SDS011;11050;52.222;20.916;2023-06-22T08:14:49;9.75;;;8.07;;
21777;SDS011;11050;52.222;20.916;2023-06-22T08:17:15;11.75;;;7.95;;
21777;SDS011;11050;52.222;20.916;2023-06-22T08:19:41;10.75;;;7.20;;
21777;SDS011;11050;52.222;20.916;2023-06-22T08:22:07;9.45;;;6.85;;
21777;SDS011;11050;52.222;20.916;2023-06-22T08:24:32;14.00;;;7.55;;
21777;SDS011;11050;52.222;20.916;2023-06-22T08:26:58;8.63;;;7.43;;
21777;SDS011;11050;52.222;20.916;2023-06-22T08:29:24;9.35;;;8.05;;
21777;SDS011;11050;52.222;20.916;2023-06-22T08:31:50;10.73;;;8.15;;
21777;SDS011;11050;52.222;20.916;2023-06-22T08:34:16;10.10;;;7.75;;
21777;SDS011;11050;52.222;20.916;2023-06-22T08:36:46;10.82;;;7.18;;
21777;SDS011;11050;52.222;20.916;2023-06-22T08:39:16;9.82;;;8.73;;
21777;SDS011;11050;52.222;20.916;2023-06-22T08:41:43;8.90;;;7.72;;
21777;SDS011;11050;52.222;20.916;2023-06-22T08:44:09;8.55;;;7.60;;
21777;SDS011;11050;52.222;20.916;2023-06-22T08:46:35;7.80;;;6.82;;
21777;SDS011;11050;52.222;20.916;2023-06-22T08:49:01;7.75;;;6.95;;
21777;SDS011;11050;52.222;20.916;2023-06-22T08:51:27;7.40;;;6.15;;
21777;SDS011;11050;52.222;20.916;2023-06-22T08:53:54;7.38;;;6.50;;
21777;SDS011;11050;52.222;20.916;2023-06-22T08:56:19;7.63;;;5.75;;
21777;SDS011;11050;52.222;20.916;2023-06-22T08:58:45;6.47;;;5.55;;
21777;SDS011;11050;52.222;20.916;2023-06-22T09:01:11;6.72;;;5.25;;
21777;SDS011;11050;52.222;20.916;2023-06-22T09:03:37;7.47;;;5.15;;
21777;SDS011;11050;52.222;20.916;2023-06-22T09:06:03;6.63;;;5.22;;
21777;SDS011;11050;52.222;20.916;2023-06-22T09:08:28;7.40;;;6.18;;
21777;SDS011;11050;52.222;20.916;2023-06-22T09:10:54;7.25;;;5.30;;
21777;SDS011;11050;52.222;20.916;2023-06-22T09:13:20;6.15;;;4.90;;
21777;SDS011;11050;52.222;20.916;2023-06-22T09:15:47;9.00;;;5.00;;
21777;SDS011;11050;52.222;20.916;2023-06-22T09:18:13;8.10;;;5.25;;
21777;SDS011;11050;52.222;20.916;2023-06-22T09:20:39;6.88;;;5.07;;
21777;SDS011;11050;52.222;20.916;2023-06-22T09:23:05;5.88;;;4.93;;
21777;SDS011;11050;52.222;20.916;2023-06-22T09:25:30;5.88;;;5.05;;
21777;SDS011;11050;52.222;20.916;2023-06-22T09:27:56;6.10;;;5.45;;
21777;SDS011;11050;52.222;20.916;2023-06-22T09:30:22;5.50;;;5.00;;
21777;SDS011;11050;52.222;20.916;2023-06-22T09:32:48;6.00;;;5.40;;
21777;SDS011;11050;52.222;20.916;2023-06-22T09:35:13;6.07;;;5.10;;
21777;SDS011;11050;52.222;20.916;2023-06-22T09:37:39;6.97;;;5.40;;
21777;SDS011;11050;52.222;20.916;2023-06-22T09:40:06;5.97;;;5.25;;
21777;SDS011;11050;52.222;20.916;2023-06-22T09:42:37;7.00;;;5.32;;
21777;SDS011;11050;52.222;20.916;2023-06-22T09:45:04;6.95;;;5.05;;
21777;SDS011;11050;52.222;20.916;2023-06-22T09:47:31;6.28;;;4.90;;
21777;SDS011;11050;52.222;20.916;2023-06-22T09:49:57;8.85;;;4.80;;
21777;SDS011;11050;52.222;20.916;2023-06-22T09:52:24;8.23;;;4.95;;
21777;SDS011;11050;52.222;20.916;2023-06-22T09:54:50;6.30;;;5.70;;
21777;SDS011;11050;52.222;20.916;2023-06-22T09:57:16;5.30;;;4.80;;
21777;SDS011;11050;52.222;20.916;2023-06-22T09:59:42;5.85;;;4.95;;
21777;SDS011;11050;52.222;20.916;2023-06-22T10:02:07;7.10;;;5.35;;
21777;SDS011;11050;52.222;20.916;2023-06-22T10:04:34;5.35;;;4.85;;
21777;SDS011;11050;52.222;20.916;2023-06-22T10:07:00;6.55;;;4.60;;
21777;SDS011;11050;52.222;20.916;2023-06-22T10:09:27;6.63;;;5.45;;
21777;SDS011;11050;52.222;20.916;2023-06-22T10:11:53;7.05;;;5.38;;
21777;SDS011;11050;52.222;20.916;2023-06-22T10:14:19;6.82;;;5.50;;
21777;SDS011;11050;52.222;20.916;2023-06-22T10:16:45;7.40;;;5.55;;
21777;SDS011;11050;52.222;20.916;2023-06-22T10:19:11;7.47;;;5.25;;
21777;SDS011;11050;52.222;20.916;2023-06-22T10:21:36;8.75;;;5.13;;
21777;SDS011;11050;52.222;20.916;2023-06-22T10:24:02;6.88;;;4.90;;
21777;SDS011;11050;52.222;20.916;2023-06-22T10:26:31;9.98;;;5.78;;
21777;SDS011;11050;52.222;20.916;2023-06-22T10:28:58;7.70;;;5.15;;
21777;SDS011;11050;52.222;20.916;2023-06-22T10:31:24;7.55;;;5.85;;
21777;SDS011;11050;52.222;20.916;2023-06-22T10:33:50;6.05;;;5.45;;
21777;SDS011;11050;52.222;20.916;2023-06-22T10:36:16;7.32;;;5.10;;
21777;SDS011;11050;52.222;20.916;2023-06-22T10:38:42;8.13;;;4.85;;
21777;SDS011;11050;52.222;20.916;2023-06-22T10:41:07;7.03;;;5.40;;
21777;SDS011;11050;52.222;20.916;2023-06-22T10:43:33;6.78;;;5.30;;
21777;SDS011;11050;52.222;20.916;2023-06-22T10:45:59;10.65;;;4.95;;
21777;SDS011;11050;52.222;20.916;2023-06-22T10:48:25;6.90;;;5.25;;
21777;SDS011;11050;52.222;20.916;2023-06-22T10:50:50;5.88;;;4.93;;
21777;SDS011;11050;52.222;20.916;2023-06-22T10:53:16;5.07;;;4.60;;
21777;SDS011;11050;52.222;20.916;2023-06-22T10:55:42;5.97;;;5.00;;
21777;SDS011;11050;52.222;20.916;2023-06-22T10:58:07;7.13;;;5.50;;
21777;SDS011;11050;52.222;20.916;2023-06-22T11:00:33;7.35;;;5.25;;
21777;SDS011;11050;52.222;20.916;2023-06-22T11:02:59;9.20;;;5.60;;
21777;SDS011;11050;52.222;20.916;2023-06-22T11:05:24;8.07;;;5.38;;
21777;SDS011;11050;52.222;20.916;2023-06-22T11:07:50;6.18;;;5.07;;
21777;SDS011;11050;52.222;20.916;2023-06-22T11:10:16;8.07;;;4.90;;
21777;SDS011;11050;52.222;20.916;2023-06-22T11:12:42;6.10;;;5.32;;
21777;SDS011;11050;52.222;20.916;2023-06-22T11:15:08;5.93;;;5.32;;
21777;SDS011;11050;52.222;20.916;2023-06-22T11:17:34;8.38;;;5.35;;
21777;SDS011;11050;52.222;20.916;2023-06-22T11:20:00;5.45;;;4.90;;
21777;SDS011;11050;52.222;20.916;2023-06-22T11:22:29;7.55;;;5.15;;
21777;SDS011;11050;52.222;20.916;2023-06-22T11:24:58;7.05;;;4.70;;
21777;SDS011;11050;52.222;20.916;2023-06-22T11:27:24;5.63;;;4.43;;
21777;SDS011;11050;52.222;20.916;2023-06-22T11:29:49;5.80;;;5.30;;
21777;SDS011;11050;52.222;20.916;2023-06-22T11:32:18;5.20;;;4.70;;
21777;SDS011;11050;52.222;20.916;2023-06-22T11:34:44;5.78;;;5.28;;
21777;SDS011;11050;52.222;20.916;2023-06-22T11:37:09;7.93;;;4.90;;
21777;SDS011;11050;52.222;20.916;2023-06-22T11:39:35;7.97;;;5.10;;
21777;SDS011;11050;52.222;20.916;2023-06-22T11:42:01;9.05;;;6.03;;
21777;SDS011;11050;52.222;20.916;2023-06-22T11:44:27;7.95;;;4.70;;
21777;SDS011;11050;52.222;20.916;2023-06-22T11:46:53;6.72;;;4.68;;
21777;SDS011;11050;52.222;20.916;2023-06-22T11:49:18;6.55;;;4.88;;
21777;SDS011;11050;52.222;20.916;2023-06-22T11:51:44;11.30;;;5.00;;
21777;SDS011;11050;52.222;20.916;2023-06-22T11:54:10;6.53;;;4.85;;
21777;SDS011;11050;52.222;20.916;2023-06-22T11:56:35;6.63;;;4.60;;
21777;SDS011;11050;52.222;20.916;2023-06-22T11:59:01;7.32;;;4.97;;
21777;SDS011;11050;52.222;20.916;2023-06-22T12:01:27;6.95;;;5.18;;
21777;SDS011;11050;52.222;20.916;2023-06-22T12:03:52;6.43;;;4.47;;
21777;SDS011;11050;52.222;20.916;2023-06-22T12:06:18;6.00;;;4.70;;
21777;SDS011;11050;52.222;20.916;2023-06-22T12:08:44;8.50;;;4.68;;
21777;SDS011;11050;52.222;20.916;2023-06-22T12:11:09;8.95;;;4.80;;
21777;SDS011;11050;52.222;20.916;2023-06-22T12:13:35;6.00;;;5.05;;
21777;SDS011;11050;52.222;20.916;2023-06-22T12:16:01;6.10;;;4.55;;
21777;SDS011;11050;52.222;20.916;2023-06-22T12:18:26;6.53;;;4.72;;
21777;SDS011;11050;52.222;20.916;2023-06-22T12:20:52;5.13;;;4.57;;
21777;SDS011;11050;52.222;20.916;2023-06-22T12:23:18;5.28;;;4.57;;
21777;SDS011;11050;52.222;20.916;2023-06-22T12:25:45;5.82;;;5.20;;
21777;SDS011;11050;52.222;20.916;2023-06-22T12:28:11;5.85;;;5.25;;
21777;SDS011;11050;52.222;20.916;2023-06-22T12:30:36;6.63;;;4.78;;
21777;SDS011;11050;52.222;20.916;2023-06-22T12:33:02;5.35;;;4.40;;
21777;SDS011;11050;52.222;20.916;2023-06-22T12:35:28;7.80;;;4.97;;
21777;SDS011;11050;52.222;20.916;2023-06-22T12:37:53;5.05;;;4.30;;
21777;SDS011;11050;52.222;20.916;2023-06-22T12:40:19;8.45;;;4.93;;
21777;SDS011;11050;52.222;20.916;2023-06-22T12:42:45;5.90;;;4.55;;
21777;SDS011;11050;52.222;20.916;2023-06-22T12:45:11;7.00;;;4.90;;
21777;SDS011;11050;52.222;20.916;2023-06-22T12:47:37;4.72;;;4.35;;
21777;SDS011;11050;52.222;20.916;2023-06-22T12:50:02;4.97;;;4.57;;
21777;SDS011;11050;52.222;20.916;2023-06-22T12:52:30;5.50;;;5.00;;
21777;SDS011;11050;52.222;20.916;2023-06-22T12:54:58;5.88;;;4.60;;
21777;SDS011;11050;52.222;20.916;2023-06-22T12:57:24;6.63;;;4.43;;
21777;SDS011;11050;52.222;20.916;2023-06-22T12:59:50;4.80;;;4.35;;
21777;SDS011;11050;52.222;20.916;2023-06-22T13:02:16;4.97;;;4.25;;
21777;SDS011;11050;52.222;20.916;2023-06-22T13:04:42;5.45;;;4.75;;
21777;SDS011;11050;52.222;20.916;2023-06-22T13:07:08;4.60;;;4.20;;
21777;SDS011;11050;52.222;20.916;2023-06-22T13:09:35;7.15;;;4.43;;
21777;SDS011;11050;52.222;20.916;2023-06-22T13:12:01;4.40;;;4.03;;
21777;SDS011;11050;52.222;20.916;2023-06-22T13:14:27;4.85;;;4.30;;
21777;SDS011;11050;52.222;20.916;2023-06-22T13:16:53;5.07;;;4.57;;
21777;SDS011;11050;52.222;20.916;2023-06-22T13:19:19;5.50;;;4.60;;
21777;SDS011;11050;52.222;20.916;2023-06-22T13:21:44;5.38;;;4.53;;
21777;SDS011;11050;52.222;20.916;2023-06-22T13:24:10;5.72;;;5.10;;
21777;SDS011;11050;52.222;20.916;2023-06-22T13:26:36;4.97;;;4.57;;
21777;SDS011;11050;52.222;20.916;2023-06-22T13:29:02;5.72;;;4.55;;
21777;SDS011;11050;52.222;20.916;2023-06-22T13:31:27;4.80;;;4.40;;
21777;SDS011;11050;52.222;20.916;2023-06-22T13:33:53;6.20;;;4.65;;
21777;SDS011;11050;52.222;20.916;2023-06-22T13:36:19;5.30;;;4.20;;
21777;SDS011;11050;52.222;20.916;2023-06-22T13:38:44;5.35;;;4.60;;
21777;SDS011;11050;52.222;20.916;2023-06-22T13:41:10;4.68;;;4.28;;
21777;SDS011;11050;52.222;20.916;2023-06-22T13:43:36;6.65;;;4.97;;
21777;SDS011;11050;52.222;20.916;2023-06-22T13:46:02;6.63;;;5.20;;
21777;SDS011;11050;52.222;20.916;2023-06-22T13:48:27;5.40;;;4.32;;
21777;SDS011;11050;52.222;20.916;2023-06-22T13:50:53;5.40;;;4.90;;
21777;SDS011;11050;52.222;20.916;2023-06-22T13:53:19;4.80;;;4.40;;
21777;SDS011;11050;52.222;20.916;2023-06-22T13:55:45;4.95;;;4.43;;
21777;SDS011;11050;52.222;20.916;2023-06-22T13:58:12;7.35;;;4.32;;
21777;SDS011;11050;52.222;20.916;2023-06-22T14:00:38;4.85;;;4.25;;
21777;SDS011;11050;52.222;20.916;2023-06-22T14:03:04;4.78;;;4.28;;
21777;SDS011;11050;52.222;20.916;2023-06-22T14:05:30;7.28;;;4.95;;
21777;SDS011;11050;52.222;20.916;2023-06-22T14:07:56;6.63;;;5.25;;
21777;SDS011;11050;52.222;20.916;2023-06-22T14:10:22;6.80;;;4.55;;
21777;SDS011;11050;52.222;20.916;2023-06-22T14:12:47;5.18;;;4.72;;
21777;SDS011;11050;52.222;20.916;2023-06-22T14:15:13;4.97;;;4.57;;
21777;SDS011;11050;52.222;20.916;2023-06-22T14:17:39;5.28;;;4.88;;
21777;SDS011;11050;52.222;20.916;2023-06-22T14:20:05;5.25;;;4.78;;
21777;SDS011;11050;52.222;20.916;2023-06-22T14:22:33;5.70;;;5.20;;
21777;SDS011;11050;52.222;20.916;2023-06-22T14:25:00;6.90;;;4.68;;
21777;SDS011;11050;52.222;20.916;2023-06-22T14:27:26;7.47;;;5.80;;